Time;durP1;ratioP1;P1;durP2;ratioP2;P2;SDS_P1;SDS_P2;PMS_P1;PMS_P2;Temp;Humidity;BMP_temperature;BMP_pressure;BME280_temperature;BME280_humidity;BME280_pressure;Samples;Min_cycle;Max_cycle;Signal;HPM_P1;HPM_P2
2021/07/13 00:02:17;;;;;;;66.10;58.67;;;19.20;99.90;;;;;;5074009;28;20476;-60
2021/07/13 00:04:43;;;;;;;70.20;62.53;;;19.20;99.90;;;;;;5056049;28;20115;-60
2021/07/13 00:07:09;;;;;;;66.43;59.30;;;19.20;99.90;;;;;;5069657;28;20120;-60
2021/07/13 00:09:34;;;;;;;64.85;57.97;;;19.20;99.90;;;;;;5060313;28;20383;-60
2021/07/13 00:12:00;;;;;;;67.75;60.47;;;19.20;99.90;;;;;;5055224;28;20056;-60
2021/07/13 00:14:27;;;;;;;69.82;62.33;;;19.20;99.90;;;;;;5073487;28;20139;-60
2021/07/13 00:16:53;;;;;;;69.57;62.00;;;19.30;99.90;;;;;;5073429;28;20064;-60
2021/07/13 00:19:19;;;;;;;70.88;63.28;;;19.30;99.90;;;;;;5073566;28;20079;-60
2021/07/13 00:21:44;;;;;;;70.47;63.22;;;19.30;99.90;;;;;;5055731;28;20036;-60
2021/07/13 00:24:11;;;;;;;64.40;57.60;;;19.20;99.90;;;;;;5054630;28;20552;-60
2021/07/13 00:26:37;;;;;;;65.70;58.75;;;19.30;99.90;;;;;;5073681;28;20037;-60
2021/07/13 00:29:05;;;;;;;68.32;61.17;;;19.30;99.90;;;;;;5073631;28;20036;-60
2021/07/13 00:31:32;;;;;;;66.25;59.45;;;19.30;99.90;;;;;;5073688;28;20097;-60
2021/07/13 00:33:58;;;;;;;64.97;58.30;;;19.30;99.90;;;;;;5055283;28;20158;-60
2021/07/13 00:36:25;;;;;;;69.10;61.70;;;19.20;99.90;;;;;;5073178;28;20087;-60
2021/07/13 00:38:50;;;;;;;68.07;60.92;;;19.20;99.90;;;;;;5072976;28;20116;-60
2021/07/13 00:41:17;;;;;;;69.22;61.67;;;19.20;99.90;;;;;;5071688;28;20094;-60
2021/07/13 00:43:42;;;;;;;68.85;61.65;;;19.20;99.90;;;;;;5073217;28;20036;-60
2021/07/13 00:46:08;;;;;;;67.72;60.45;;;19.10;99.90;;;;;;5073048;28;20041;-60
2021/07/13 00:48:34;;;;;;;66.05;59.15;;;19.10;99.90;;;;;;5067122;28;20068;-59
2021/07/13 00:51:03;;;;;;;69.22;61.85;;;19.10;99.90;;;;;;5055521;28;20052;-60
2021/07/13 00:53:29;;;;;;;68.28;60.58;;;19.10;99.90;;;;;;5072389;28;20043;-60
2021/07/13 00:55:57;;;;;;;70.30;62.63;;;19.00;99.90;;;;;;5071900;28;20036;-60
2021/07/13 00:58:23;;;;;;;70.22;62.78;;;19.00;99.90;;;;;;5071461;28;20486;-60
2021/07/13 01:00:49;;;;;;;70.40;62.92;;;19.00;99.90;;;;;;5072999;28;20055;-60
2021/07/13 01:03:15;;;;;;;71.45;61.63;;;19.00;99.90;;;;;;5071976;28;20048;-60
2021/07/13 01:05:45;;;;;;;71.18;61.00;;;19.00;99.90;;;;;;5072865;28;20047;-60
2021/07/13 01:08:41;;;;;;;70.90;62.72;;;18.90;99.90;;;;;;5068443;28;20048;-60
2021/07/13 01:11:36;;;;;;;72.05;63.33;;;18.90;99.90;;;;;;5071048;28;20036;-60
2021/07/13 01:14:03;;;;;;;71.50;63.75;;;19.00;99.90;;;;;;5071374;28;20185;-60
2021/07/13 01:16:46;;;;;;;70.93;63.38;;;18.90;99.90;;;;;;5072389;28;20048;-60
2021/07/13 01:19:40;;;;;;;71.90;63.88;;;18.90;99.90;;;;;;5072588;28;20047;-60
2021/07/13 01:22:47;;;;;;;71.85;63.97;;;18.90;99.90;;;;;;5072081;28;20045;-60
2021/07/13 01:25:16;;;;;;;66.47;59.42;;;18.90;99.90;;;;;;4990848;28;20102;-60
2021/07/13 01:27:48;;;;;;;71.05;63.60;;;18.90;99.90;;;;;;4990020;28;20388;-60
2021/07/13 01:30:26;;;;;;;71.13;63.22;;;18.90;99.90;;;;;;5034623;28;20078;-60
2021/07/13 01:33:21;;;;;;;69.22;61.55;;;18.90;99.90;;;;;;5072058;28;20068;-60
2021/07/13 01:36:04;;;;;;;68.55;60.20;;;18.80;99.90;;;;;;5069553;28;20048;-59
2021/07/13 01:38:39;;;;;;;64.80;57.88;;;18.80;99.90;;;;;;5071350;28;20042;-60
2021/07/13 01:41:11;;;;;;;68.07;60.85;;;18.80;99.90;;;;;;5075703;28;20144;-60
2021/07/13 01:43:40;;;;;;;71.82;64.10;;;18.80;99.90;;;;;;5071136;28;20109;-60
2021/07/13 01:46:07;;;;;;;68.60;61.13;;;18.80;99.90;;;;;;5070706;28;20036;-60
2021/07/13 01:48:35;;;;;;;69.28;61.63;;;18.80;99.90;;;;;;5070355;28;20047;-60
2021/07/13 01:51:01;;;;;;;71.90;62.60;;;18.70;99.90;;;;;;5071577;28;20464;-60
2021/07/13 01:53:29;;;;;;;68.40;60.88;;;18.70;99.90;;;;;;5071171;28;20075;-60
2021/07/13 01:55:55;;;;;;;72.75;62.70;;;18.70;99.90;;;;;;5073328;28;20093;-60
2021/07/13 01:58:24;;;;;;;71.72;63.83;;;18.70;99.90;;;;;;5071075;28;20047;-60
2021/07/13 02:00:51;;;;;;;68.15;60.85;;;18.70;99.90;;;;;;5071668;28;20110;-59
2021/07/13 02:03:18;;;;;;;67.60;60.30;;;18.70;99.90;;;;;;5070580;28;20029;-60
2021/07/13 02:05:45;;;;;;;66.38;59.05;;;18.70;99.90;;;;;;5053467;28;20036;-60
2021/07/13 02:08:11;;;;;;;73.13;61.22;;;18.70;99.90;;;;;;5071539;28;20037;-60
2021/07/13 02:10:40;;;;;;;66.55;59.35;;;18.70;99.90;;;;;;5060398;28;20037;-60
2021/07/13 02:13:08;;;;;;;66.97;59.00;;;18.70;99.90;;;;;;5061348;28;20046;-60
2021/07/13 02:15:35;;;;;;;69.38;58.70;;;18.70;99.90;;;;;;5070738;28;20037;-60
2021/07/13 02:18:01;;;;;;;66.30;57.22;;;18.70;99.90;;;;;;5071566;28;20350;-60
2021/07/13 02:20:27;;;;;;;67.03;59.78;;;18.70;99.90;;;;;;5071229;28;20070;-60
2021/07/13 02:22:53;;;;;;;66.82;56.58;;;18.70;99.90;;;;;;5070324;28;20081;-60
2021/07/13 02:25:19;;;;;;;76.38;63.22;;;18.70;99.90;;;;;;5071214;28;20112;-60
2021/07/13 02:28:13;;;;;;;57.05;51.03;;;18.70;99.90;;;;;;5071269;28;20044;-60
2021/07/13 02:30:43;;;;;;;71.88;61.10;;;18.70;99.90;;;;;;5069297;28;20048;-60
2021/07/13 02:33:17;;;;;;;70.35;61.40;;;18.70;99.90;;;;;;5071180;28;20397;-60
2021/07/13 02:35:52;;;;;;;74.65;63.33;;;18.60;99.90;;;;;;5070736;28;20450;-60
2021/07/13 02:38:20;;;;;;;71.43;62.47;;;18.60;99.90;;;;;;5053270;28;20160;-60
2021/07/13 02:40:48;;;;;;;68.47;60.15;;;18.60;99.90;;;;;;5069707;28;20064;-60
2021/07/13 02:43:14;;;;;;;69.53;61.38;;;18.60;99.90;;;;;;5071140;28;20040;-60
2021/07/13 02:45:42;;;;;;;75.18;60.75;;;18.50;99.90;;;;;;5070988;28;20544;-60
2021/07/13 02:48:09;;;;;;;64.20;57.40;;;18.50;99.90;;;;;;5070932;28;20032;-60
2021/07/13 02:50:36;;;;;;;71.63;60.38;;;18.50;99.90;;;;;;5070760;28;20367;-60
2021/07/13 02:53:03;;;;;;;70.25;60.97;;;18.50;99.90;;;;;;5071113;28;20112;-60
2021/07/13 02:55:30;;;;;;;72.55;61.65;;;18.50;99.90;;;;;;5070753;28;20064;-59
2021/07/13 02:57:57;;;;;;;61.40;54.72;;;18.50;99.90;;;;;;5069923;28;20071;-60
2021/07/13 03:00:23;;;;;;;67.00;58.83;;;18.50;99.90;;;;;;5070805;28;20040;-60
2021/07/13 03:02:50;;;;;;;67.47;58.08;;;18.50;99.90;;;;;;5071184;28;20530;-60
2021/07/13 03:05:18;;;;;;;88.20;64.88;;;18.50;99.90;;;;;;5070505;28;20049;-60
2021/07/13 03:07:46;;;;;;;76.53;62.15;;;18.40;99.90;;;;;;5071154;28;20120;-60
2021/07/13 03:10:12;;;;;;;70.63;59.92;;;18.30;99.90;;;;;;5064416;28;20056;-60
2021/07/13 03:12:38;;;;;;;68.88;58.13;;;18.30;99.90;;;;;;5064475;28;20029;-60
2021/07/13 03:15:06;;;;;;;67.15;57.97;;;18.30;99.90;;;;;;5069367;28;20033;-60
2021/07/13 03:17:33;;;;;;;66.50;56.50;;;18.30;99.90;;;;;;5070894;28;20041;-60
2021/07/13 03:19:59;;;;;;;58.25;51.33;;;18.30;99.90;;;;;;5070360;28;20036;-60
2021/07/13 03:22:30;;;;;;;55.35;49.33;;;18.30;99.90;;;;;;5067141;28;20151;-60
2021/07/13 03:24:58;;;;;;;64.15;54.65;;;18.30;99.90;;;;;;5070155;28;20032;-60
2021/07/13 03:27:25;;;;;;;61.17;54.53;;;18.30;99.90;;;;;;5072999;28;20036;-60
2021/07/13 03:29:52;;;;;;;57.92;51.58;;;18.30;99.90;;;;;;5074247;28;20036;-60
2021/07/13 03:32:18;;;;;;;54.25;48.70;;;18.30;99.90;;;;;;5074089;28;20043;-60
2021/07/13 03:34:45;;;;;;;58.78;51.97;;;18.40;99.90;;;;;;5072318;28;20044;-60
2021/07/13 03:37:12;;;;;;;57.80;51.58;;;18.40;99.90;;;;;;5068395;28;20082;-60
2021/07/13 03:39:38;;;;;;;60.45;52.80;;;18.40;99.90;;;;;;5071798;28;20044;-60
2021/07/13 03:42:04;;;;;;;59.92;52.05;;;18.40;99.90;;;;;;5065423;28;20474;-60
2021/07/13 03:44:30;;;;;;;58.75;52.03;;;18.40;99.90;;;;;;5074221;28;20146;-60
2021/07/13 03:46:56;;;;;;;59.33;52.08;;;18.40;99.90;;;;;;5074175;28;20053;-60
2021/07/13 03:49:26;;;;;;;54.28;48.60;;;18.40;99.90;;;;;;5074444;28;20106;-60
2021/07/13 03:51:52;;;;;;;58.22;51.90;;;18.40;99.90;;;;;;5074374;28;20037;-59
2021/07/13 03:54:20;;;;;;;60.33;53.00;;;18.40;99.90;;;;;;5074095;28;20041;-60
2021/07/13 03:56:49;;;;;;;60.67;53.42;;;18.40;99.90;;;;;;5078863;23;20065;-63
2021/07/13 03:59:15;;;;;;;59.47;52.17;;;18.40;99.90;;;;;;5073068;28;20501;-63
2021/07/13 04:01:41;;;;;;;49.72;44.50;;;18.40;99.90;;;;;;5059067;28;20036;-63
2021/07/13 04:04:07;;;;;;;53.00;47.42;;;18.50;99.90;;;;;;5064873;28;20456;-63
2021/07/13 04:06:33;;;;;;;52.10;46.80;;;18.60;99.90;;;;;;5073065;28;20119;-63
2021/07/13 04:09:00;;;;;;;56.20;50.20;;;18.60;99.90;;;;;;5071821;28;20539;-63
2021/07/13 04:11:26;;;;;;;56.00;49.75;;;18.70;99.90;;;;;;5065595;28;20057;-63
2021/07/13 04:13:52;;;;;;;53.08;47.47;;;18.80;99.90;;;;;;5070713;28;20611;-63
2021/07/13 04:16:18;;;;;;;53.58;47.90;;;18.80;99.90;;;;;;5068155;28;20482;-63
2021/07/13 04:18:44;;;;;;;57.97;51.88;;;18.90;99.90;;;;;;5053225;28;20037;-63
2021/07/13 04:21:10;;;;;;;58.83;52.63;;;18.90;99.90;;;;;;5056519;28;20044;-63
2021/07/13 04:23:35;;;;;;;59.45;51.70;;;19.00;99.90;;;;;;5056668;28;20036;-63
2021/07/13 04:26:03;;;;;;;50.95;45.75;;;19.00;99.90;;;;;;5072994;28;20032;-63
2021/07/13 04:28:31;;;;;;;49.42;44.33;;;19.00;99.90;;;;;;5072193;28;20439;-63
2021/07/13 04:30:58;;;;;;;55.28;49.58;;;19.10;99.90;;;;;;5072539;28;20040;-63
2021/07/13 04:33:23;;;;;;;50.95;45.58;;;19.20;99.90;;;;;;5069966;28;20044;-63
2021/07/13 04:35:49;;;;;;;49.78;44.92;;;19.20;99.90;;;;;;5063237;28;20049;-63
2021/07/13 04:38:15;;;;;;;52.78;47.30;;;19.20;99.90;;;;;;5063326;28;20053;-63
2021/07/13 04:40:41;;;;;;;56.60;50.60;;;19.30;99.90;;;;;;5052929;28;20090;-64
2021/07/13 04:43:06;;;;;;;54.42;48.90;;;19.20;99.90;;;;;;5072407;28;20043;-64
2021/07/13 04:45:32;;;;;;;50.22;44.95;;;19.20;99.90;;;;;;5085569;28;20039;-63
2021/07/13 04:47:58;;;;;;;55.10;49.08;;;19.20;99.90;;;;;;5063423;28;20053;-63
2021/07/13 04:50:24;;;;;;;53.55;47.83;;;19.20;99.90;;;;;;5067498;28;20102;-63
2021/07/13 04:52:50;;;;;;;56.97;51.05;;;19.20;99.90;;;;;;5070843;28;20430;-63
2021/07/13 04:55:17;;;;;;;53.42;48.13;;;19.20;99.90;;;;;;5063997;28;20044;-63
2021/07/13 04:57:44;;;;;;;54.42;48.83;;;19.20;99.90;;;;;;5063129;28;20083;-63
2021/07/13 05:00:10;;;;;;;51.67;46.08;;;19.20;99.90;;;;;;5061600;28;20484;-63
2021/07/13 05:02:36;;;;;;;57.42;50.75;;;19.30;99.90;;;;;;5070712;28;20502;-63
2021/07/13 05:05:01;;;;;;;60.47;52.97;;;19.30;99.90;;;;;;5070474;28;20072;-63
2021/07/13 05:07:27;;;;;;;67.00;55.45;;;19.30;99.90;;;;;;5054252;28;20041;-63
2021/07/13 05:09:53;;;;;;;74.10;56.22;;;19.30;99.90;;;;;;5070404;28;20101;-63
2021/07/13 05:12:19;;;;;;;66.95;57.22;;;19.30;99.90;;;;;;5057888;28;20112;-63
2021/07/13 05:14:44;;;;;;;58.70;52.25;;;19.30;99.90;;;;;;5068210;28;20043;-64
2021/07/13 05:17:11;;;;;;;94.93;60.88;;;19.30;99.90;;;;;;5071233;28;20037;-63
2021/07/13 05:19:39;;;;;;;71.72;57.13;;;19.30;99.90;;;;;;5071449;28;20474;-63
2021/07/13 05:22:08;;;;;;;61.53;52.72;;;19.40;99.90;;;;;;5056088;28;20076;-63
2021/07/13 05:24:34;;;;;;;68.38;58.75;;;19.40;99.90;;;;;;5070422;28;20131;-63
2021/07/13 05:27:00;;;;;;;67.00;58.90;;;19.50;99.90;;;;;;5063084;28;20139;-63
2021/07/13 05:29:25;;;;;;;72.85;62.63;;;19.60;99.90;;;;;;5064411;28;20482;-63
2021/07/13 05:31:51;;;;;;;72.43;61.40;;;19.70;99.90;;;;;;5071244;28;20111;-63
2021/07/13 05:34:17;;;;;;;65.63;58.30;;;19.70;99.90;;;;;;5070404;28;20143;-63
2021/07/13 05:36:43;;;;;;;70.47;61.63;;;19.70;99.90;;;;;;5070794;28;20344;-63
2021/07/13 05:39:09;;;;;;;56.85;50.70;;;19.80;99.90;;;;;;5071148;28;20037;-63
2021/07/13 05:41:36;;;;;;;64.55;57.53;;;19.80;99.90;;;;;;5069861;28;20040;-63
2021/07/13 05:44:06;;;;;;;71.65;60.63;;;19.90;99.90;;;;;;5088039;28;20043;-63
2021/07/13 05:46:31;;;;;;;55.40;49.63;;;19.90;99.90;;;;;;5091345;28;20476;-63
2021/07/13 05:48:58;;;;;;;68.43;57.25;;;19.90;99.90;;;;;;5090144;28;20048;-63
2021/07/13 05:51:23;;;;;;;59.92;53.45;;;20.10;99.90;;;;;;5091348;28;20204;-63
2021/07/13 05:53:49;;;;;;;62.47;55.05;;;20.10;99.90;;;;;;5069553;28;20037;-63
2021/07/13 05:56:15;;;;;;;54.58;48.78;;;20.10;99.90;;;;;;5062867;28;20402;-63
2021/07/13 05:58:40;;;;;;;55.50;49.33;;;20.20;99.90;;;;;;5063082;28;20044;-63
2021/07/13 06:01:07;;;;;;;56.63;50.63;;;20.30;99.90;;;;;;5062284;28;20068;-63
2021/07/13 06:03:33;;;;;;;53.60;47.70;;;20.40;99.90;;;;;;5050372;28;20037;-63
2021/07/13 06:05:59;;;;;;;55.33;49.28;;;20.50;99.90;;;;;;5090673;28;20032;-63
2021/07/13 06:08:25;;;;;;;56.55;49.42;;;20.50;99.90;;;;;;5082235;28;20097;-63
2021/07/13 06:10:51;;;;;;;55.67;49.47;;;20.60;99.90;;;;;;5064093;28;20131;-63
2021/07/13 06:13:16;;;;;;;52.78;44.55;;;20.50;99.90;;;;;;5063183;28;20111;-64
2021/07/13 06:15:42;;;;;;;56.85;47.13;;;20.60;99.90;;;;;;5070509;28;20119;-63
2021/07/13 06:18:08;;;;;;;51.65;46.10;;;20.60;99.90;;;;;;5060039;28;20447;-63
2021/07/13 06:20:35;;;;;;;52.08;46.45;;;20.70;99.90;;;;;;5061652;28;20040;-64
2021/07/13 06:23:01;;;;;;;51.78;45.13;;;20.70;99.90;;;;;;5051260;28;20032;-64
2021/07/13 06:25:27;;;;;;;49.58;44.25;;;20.80;99.90;;;;;;5063249;28;20072;-64
2021/07/13 06:27:53;;;;;;;47.67;42.63;;;20.90;99.90;;;;;;5059116;28;20033;-64
2021/07/13 06:30:19;;;;;;;46.75;41.78;;;21.10;99.90;;;;;;5069798;28;20110;-64
2021/07/13 06:32:46;;;;;;;48.92;42.50;;;21.20;99.90;;;;;;5071108;28;20037;-64
2021/07/13 06:35:12;;;;;;;45.35;40.63;;;21.20;99.90;;;;;;5067940;28;20078;-64
2021/07/13 06:37:38;;;;;;;47.25;42.15;;;21.40;99.90;;;;;;5071242;28;20191;-64
2021/07/13 06:40:05;;;;;;;44.33;39.88;;;21.60;99.90;;;;;;5062960;28;20148;-64
2021/07/13 06:42:31;;;;;;;45.65;40.92;;;21.70;99.90;;;;;;5059394;28;20538;-62
2021/07/13 06:44:56;;;;;;;36.67;32.92;;;21.90;99.90;;;;;;5079220;28;20124;-63
2021/07/13 06:47:22;;;;;;;37.38;33.75;;;22.10;99.90;;;;;;5070414;28;20040;-63
2021/07/13 06:49:48;;;;;;;35.67;32.28;;;22.30;99.90;;;;;;5070443;28;20106;-63
2021/07/13 06:52:14;;;;;;;35.22;31.92;;;22.60;99.90;;;;;;5069723;28;20044;-63
2021/07/13 06:54:39;;;;;;;35.97;32.47;;;22.80;99.90;;;;;;5068638;28;20033;-63
2021/07/13 06:57:05;;;;;;;34.08;30.65;;;22.90;99.90;;;;;;5049607;28;20048;-63
2021/07/13 06:59:31;;;;;;;32.83;29.58;;;23.00;99.90;;;;;;5050802;28;20124;-63
2021/07/13 07:01:56;;;;;;;31.00;28.08;;;23.10;99.90;;;;;;5070152;28;20123;-63
2021/07/13 07:04:22;;;;;;;29.55;26.92;;;22.70;99.90;;;;;;5066538;28;20482;-62
2021/07/13 07:06:48;;;;;;;30.60;27.85;;;22.80;99.90;;;;;;5071002;28;20033;-63
2021/07/13 07:09:14;;;;;;;30.67;27.88;;;22.80;99.90;;;;;;5064821;28;20063;-63
2021/07/13 07:11:39;;;;;;;32.28;29.25;;;22.80;99.90;;;;;;5050865;28;20040;-63
2021/07/13 07:14:05;;;;;;;29.90;27.20;;;22.80;99.90;;;;;;5053429;28;20086;-62
2021/07/13 07:16:31;;;;;;;30.95;28.02;;;22.80;99.90;;;;;;5069112;28;20044;-63
2021/07/13 07:18:56;;;;;;;33.00;29.88;;;22.80;99.90;;;;;;5068696;28;20202;-63
2021/07/13 07:21:22;;;;;;;34.40;30.90;;;22.80;99.90;;;;;;5057796;28;20044;-63
2021/07/13 07:23:48;;;;;;;34.88;31.30;;;22.80;99.90;;;;;;5068680;28;20064;-63
2021/07/13 07:26:14;;;;;;;36.20;32.40;;;22.70;99.90;;;;;;5068792;28;20047;-63
2021/07/13 07:28:40;;;;;;;35.13;31.42;;;22.70;99.90;;;;;;5056640;28;20094;-63
2021/07/13 07:31:05;;;;;;;32.05;28.55;;;22.80;99.90;;;;;;5068930;28;20040;-63
2021/07/13 07:33:31;;;;;;;35.08;31.48;;;22.80;99.90;;;;;;5069721;28;20077;-63
2021/07/13 07:35:57;;;;;;;35.58;31.50;;;22.80;99.90;;;;;;5069900;28;20122;-63
2021/07/13 07:38:23;;;;;;;33.97;30.42;;;22.40;99.90;;;;;;5069444;28;20064;-63
2021/07/13 07:40:49;;;;;;;30.48;27.38;;;22.50;99.90;;;;;;5070198;28;20041;-63
2021/07/13 07:43:15;;;;;;;28.80;25.83;;;22.50;99.90;;;;;;5064157;28;20044;-63
2021/07/13 07:45:41;;;;;;;29.67;26.58;;;22.60;99.90;;;;;;5069870;28;20043;-63
2021/07/13 07:48:06;;;;;;;28.58;25.60;;;22.50;99.90;;;;;;5069205;28;20044;-63
2021/07/13 07:50:33;;;;;;;29.05;25.88;;;22.40;99.90;;;;;;5069685;28;20048;-63
2021/07/13 07:52:58;;;;;;;27.23;24.63;;;22.40;99.90;;;;;;5068926;28;20098;-63
2021/07/13 07:55:26;;;;;;;26.70;23.98;;;22.30;99.90;;;;;;5064907;28;20295;-63
2021/07/13 07:57:53;;;;;;;25.85;23.45;;;22.40;99.90;;;;;;5066223;28;20098;-63
2021/07/13 08:00:19;;;;;;;26.60;23.95;;;22.40;99.90;;;;;;5068751;28;20049;-63
2021/07/13 08:02:45;;;;;;;26.77;24.20;;;22.50;99.90;;;;;;5059775;28;20497;-63
2021/07/13 08:05:14;;;;;;;25.40;23.02;;;22.30;99.90;;;;;;5069815;28;20051;-63
2021/07/13 08:07:40;;;;;;;25.13;22.73;;;22.40;99.90;;;;;;5064265;28;20037;-63
2021/07/13 08:10:07;;;;;;;23.67;21.48;;;22.50;99.90;;;;;;5070130;28;20094;-63
2021/07/13 08:12:33;;;;;;;22.50;20.25;;;22.50;99.90;;;;;;5055753;28;20120;-63
2021/07/13 08:14:59;;;;;;;21.27;19.17;;;22.20;99.90;;;;;;5070964;28;20040;-63
2021/07/13 08:17:25;;;;;;;22.98;20.88;;;22.40;99.90;;;;;;5071435;28;20090;-63
2021/07/13 08:19:51;;;;;;;21.65;19.45;;;22.60;99.90;;;;;;5067837;28;20084;-63
2021/07/13 08:22:16;;;;;;;22.60;20.50;;;22.70;99.90;;;;;;5068094;28;20064;-63
2021/07/13 08:24:42;;;;;;;22.77;20.52;;;22.50;99.90;;;;;;5072663;28;20487;-63
2021/07/13 08:27:09;;;;;;;23.42;21.33;;;22.70;99.90;;;;;;5070964;28;20037;-63
2021/07/13 08:29:35;;;;;;;19.42;17.73;;;22.60;99.90;;;;;;5068507;28;20120;-63
2021/07/13 08:32:01;;;;;;;20.23;18.23;;;22.70;99.90;;;;;;5063287;28;20032;-63
2021/07/13 08:34:29;;;;;;;21.08;19.17;;;22.80;99.90;;;;;;5064802;28;20509;-63
2021/07/13 08:36:55;;;;;;;21.63;19.63;;;23.00;99.90;;;;;;5068424;28;20032;-63
2021/07/13 08:39:20;;;;;;;23.17;21.17;;;22.80;99.90;;;;;;5071371;28;20044;-63
2021/07/13 08:41:47;;;;;;;21.05;19.25;;;22.60;99.90;;;;;;5072827;28;20064;-63
2021/07/13 08:44:13;;;;;;;22.70;20.65;;;22.80;99.90;;;;;;5071129;28;20043;-63
2021/07/13 08:46:40;;;;;;;20.67;18.92;;;23.10;99.90;;;;;;5063473;28;20037;-63
2021/07/13 08:49:08;;;;;;;22.10;20.05;;;23.20;99.90;;;;;;5053269;28;20497;-63
2021/07/13 08:51:35;;;;;;;20.45;18.75;;;23.20;99.90;;;;;;5056077;28;20090;-63
2021/07/13 08:54:04;;;;;;;20.60;18.70;;;23.10;99.90;;;;;;5053111;28;20037;-63
2021/07/13 08:56:32;;;;;;;20.08;18.33;;;23.20;99.90;;;;;;5059938;28;20053;-63
2021/07/13 08:58:58;;;;;;;23.00;20.88;;;23.30;99.90;;;;;;5072987;28;20829;-63
2021/07/13 09:01:23;;;;;;;21.92;19.88;;;23.20;99.90;;;;;;5066847;28;20040;-63
2021/07/13 09:03:58;;;;;;;22.00;20.02;;;23.30;99.90;;;;;;5061911;28;20040;-63
2021/07/13 09:06:25;;;;;;;21.40;19.50;;;23.30;99.90;;;;;;5057559;28;20122;-63
2021/07/13 09:08:51;;;;;;;21.92;19.92;;;23.40;99.90;;;;;;5064868;28;20135;-63
2021/07/13 09:11:23;;;;;;;22.08;20.08;;;23.40;99.90;;;;;;5065840;28;20940;-63
2021/07/13 09:13:49;;;;;;;21.25;19.23;;;23.40;99.90;;;;;;5066564;28;20029;-63
2021/07/13 09:16:22;;;;;;;22.73;20.58;;;23.50;99.90;;;;;;5062212;28;20042;-63
2021/07/13 09:18:51;;;;;;;21.80;19.90;;;23.50;99.90;;;;;;5070630;28;20390;-63
2021/07/13 09:21:32;;;;;;;20.58;18.60;;;23.60;99.90;;;;;;5067565;28;20082;-63
2021/07/13 09:24:20;;;;;;;18.83;17.20;;;23.60;99.90;;;;;;5054083;28;20623;-63
2021/07/13 09:26:58;;;;;;;20.90;18.98;;;23.70;99.90;;;;;;5062318;28;20033;-63
2021/07/13 09:29:38;;;;;;;19.63;17.92;;;23.70;99.90;;;;;;5052693;28;20044;-63
2021/07/13 09:32:23;;;;;;;19.63;17.98;;;23.80;99.90;;;;;;5061776;28;20032;-63
2021/07/13 09:34:58;;;;;;;18.40;16.77;;;23.80;99.90;;;;;;5062781;28;20410;-63
2021/07/13 09:37:27;;;;;;;18.50;16.90;;;23.80;99.90;;;;;;5070481;28;20056;-63
2021/07/13 09:40:11;;;;;;;19.15;17.50;;;23.90;99.90;;;;;;5070128;28;20044;-63
2021/07/13 09:42:53;;;;;;;17.75;15.93;;;23.70;99.90;;;;;;5061872;28;20402;-63
2021/07/13 09:45:18;;;;;;;16.65;15.35;;;23.80;99.90;;;;;;5059448;28;20040;-63
2021/07/13 09:47:45;;;;;;;17.80;16.17;;;23.80;99.90;;;;;;5060684;28;20037;-63
2021/07/13 09:50:13;;;;;;;17.17;15.77;;;23.80;99.90;;;;;;5070437;28;20047;-63
2021/07/13 09:52:39;;;;;;;18.45;16.95;;;23.70;99.90;;;;;;5062966;28;20091;-63
2021/07/13 09:55:15;;;;;;;16.63;15.05;;;23.60;99.90;;;;;;5066290;28;20056;-63
2021/07/13 09:57:42;;;;;;;18.92;17.42;;;23.60;99.90;;;;;;5069924;28;20036;-63
2021/07/13 10:00:08;;;;;;;18.45;16.88;;;23.50;99.90;;;;;;5070381;28;20032;-63
2021/07/13 10:02:34;;;;;;;17.38;15.93;;;23.40;99.90;;;;;;5068190;28;20508;-63
2021/07/13 10:05:03;;;;;;;19.25;17.60;;;23.40;99.90;;;;;;5067464;28;20028;-63
2021/07/13 10:07:30;;;;;;;17.80;16.30;;;23.40;99.90;;;;;;5068656;28;20124;-63
2021/07/13 10:09:57;;;;;;;18.30;16.52;;;23.30;99.90;;;;;;5065845;28;20078;-63
2021/07/13 10:12:26;;;;;;;17.60;16.08;;;23.20;99.90;;;;;;5062288;28;20102;-63
2021/07/13 10:14:55;;;;;;;18.77;16.98;;;23.20;99.90;;;;;;5066449;28;20045;-63
2021/07/13 10:17:23;;;;;;;17.88;16.23;;;23.10;99.90;;;;;;5063440;28;20127;-63
2021/07/13 10:19:51;;;;;;;17.23;15.68;;;23.00;99.90;;;;;;5063289;28;20044;-63
2021/07/13 10:22:22;;;;;;;18.23;16.52;;;23.10;99.90;;;;;;5065632;28;20072;-63
2021/07/13 10:24:51;;;;;;;16.77;15.27;;;23.20;99.90;;;;;;5064445;28;20091;-63
2021/07/13 10:27:24;;;;;;;18.90;17.17;;;23.40;99.90;;;;;;5062247;28;20120;-63
2021/07/13 10:29:50;;;;;;;19.42;17.63;;;23.40;99.90;;;;;;5065856;28;20090;-63
2021/07/13 10:32:15;;;;;;;19.65;17.75;;;23.40;99.90;;;;;;5063403;28;20040;-63
2021/07/13 10:34:52;;;;;;;20.65;18.80;;;23.40;99.90;;;;;;5062926;28;20036;-63
2021/07/13 10:37:30;;;;;;;22.13;20.20;;;23.50;99.90;;;;;;5062946;28;20410;-63
2021/07/13 10:40:07;;;;;;;20.55;18.70;;;23.40;99.90;;;;;;5063157;28;20044;-63
2021/07/13 10:42:42;;;;;;;21.85;19.80;;;23.40;99.90;;;;;;5070013;28;20063;-63
2021/07/13 10:45:32;;;;;;;21.00;19.10;;;23.40;99.90;;;;;;5061047;28;20051;-63
2021/07/13 10:48:02;;;;;;;22.15;20.15;;;23.50;99.90;;;;;;5056772;28;20041;-63
2021/07/13 10:50:28;;;;;;;22.75;20.73;;;23.50;99.90;;;;;;5065267;28;20097;-63
2021/07/13 10:52:57;;;;;;;21.63;19.63;;;23.60;99.90;;;;;;5069829;28;20045;-63
2021/07/13 10:55:33;;;;;;;20.95;19.05;;;23.60;99.90;;;;;;5068605;28;20052;-63
2021/07/13 10:58:17;;;;;;;22.45;20.40;;;23.70;99.90;;;;;;5069909;28;20056;-63
2021/07/13 11:00:53;;;;;;;23.45;21.38;;;23.60;99.90;;;;;;5064336;28;20368;-63
2021/07/13 11:03:39;;;;;;;22.35;20.40;;;23.40;99.90;;;;;;5065366;28;20497;-63
2021/07/13 11:06:10;;;;;;;22.55;20.48;;;23.50;99.90;;;;;;5063334;28;20059;-63
2021/07/13 11:08:39;;;;;;;22.52;20.60;;;23.60;99.90;;;;;;5070684;28;20037;-63
2021/07/13 11:11:22;;;;;;;24.17;21.98;;;23.60;99.90;;;;;;5069851;28;20044;-63
2021/07/13 11:13:53;;;;;;;24.58;22.10;;;23.60;99.90;;;;;;5070143;28;20068;-63
2021/07/13 11:16:32;;;;;;;23.30;21.30;;;23.50;99.90;;;;;;5069989;28;20047;-63
2021/07/13 11:18:59;;;;;;;23.05;20.90;;;23.50;99.90;;;;;;5068894;28;20037;-64
2021/07/13 11:21:30;;;;;;;24.83;22.70;;;23.60;99.90;;;;;;5068284;28;20370;-64
2021/07/13 11:24:10;;;;;;;24.48;22.45;;;23.70;99.90;;;;;;5069967;28;20079;-64
2021/07/13 11:26:38;;;;;;;22.65;20.75;;;23.70;99.90;;;;;;5058491;28;20036;-64
2021/07/13 11:29:06;;;;;;;23.38;21.30;;;23.70;99.90;;;;;;5070319;28;20093;-64
2021/07/13 11:31:37;;;;;;;24.30;22.30;;;23.70;99.90;;;;;;5050769;28;20041;-64
2021/07/13 11:34:08;;;;;;;23.87;21.80;;;23.70;99.90;;;;;;5052025;28;20641;-63
2021/07/13 11:36:40;;;;;;;24.20;22.00;;;23.60;99.90;;;;;;5049451;28;20124;-64
2021/07/13 11:39:13;;;;;;;;;;;23.50;99.90;;;;;;5059451;28;20040;-64
2021/07/13 11:41:40;;;;;;;27.17;24.75;;;23.60;99.90;;;;;;5068526;28;19959;-64
2021/07/13 11:44:08;;;;;;;25.85;23.67;;;23.50;99.90;;;;;;5073176;28;20085;-63
2021/07/13 11:46:40;;;;;;;27.30;24.90;;;23.40;99.90;;;;;;5069617;28;20116;-64
2021/07/13 11:49:09;;;;;;;26.42;23.92;;;23.40;99.90;;;;;;5071094;28;20467;-64
2021/07/13 11:51:37;;;;;;;28.15;25.65;;;23.40;99.90;;;;;;5073276;28;20040;-64
2021/07/13 11:54:10;;;;;;;25.70;23.50;;;23.30;99.90;;;;;;5072503;28;20040;-64
2021/07/13 11:56:43;;;;;;;25.30;23.00;;;23.30;99.90;;;;;;5071845;28;20055;-64
2021/07/13 11:59:09;;;;;;;28.25;25.75;;;23.40;99.90;;;;;;5072246;28;20041;-64
2021/07/13 12:01:36;;;;;;;27.67;25.17;;;23.10;99.90;;;;;;5073179;28;20059;-64
2021/07/13 12:04:10;;;;;;;27.02;24.63;;;23.20;99.90;;;;;;5072404;28;20112;-64
2021/07/13 12:06:38;;;;;;;26.05;23.55;;;23.10;99.90;;;;;;5070566;28;20115;-64
2021/07/13 12:09:12;;;;;;;27.27;24.73;;;23.20;99.90;;;;;;5063057;28;20158;-63
2021/07/13 12:11:47;;;;;;;28.17;25.58;;;23.20;99.90;;;;;;5063707;28;20067;-64
2021/07/13 12:14:18;;;;;;;28.00;25.15;;;22.80;99.90;;;;;;5066206;28;20094;-64
2021/07/13 12:16:44;;;;;;;25.95;23.65;;;22.90;99.90;;;;;;5060656;28;20135;-64
2021/07/13 12:19:12;;;;;;;28.77;26.00;;;22.90;99.90;;;;;;5063518;28;20072;-64
2021/07/13 12:21:49;;;;;;;27.20;24.40;;;22.90;99.90;;;;;;5071776;28;20036;-64
2021/07/13 12:24:17;;;;;;;27.15;24.55;;;22.90;99.90;;;;;;5071624;28;20550;-64
2021/07/13 12:27:05;;;;;;;28.30;25.45;;;22.70;99.90;;;;;;5053319;28;20045;-64
2021/07/13 12:29:33;;;;;;;29.17;26.33;;;22.80;99.90;;;;;;5072632;28;20068;-64
2021/07/13 12:32:03;;;;;;;27.83;25.05;;;22.60;99.90;;;;;;5073168;28;20048;-64
2021/07/13 12:34:31;;;;;;;27.55;24.80;;;22.50;99.90;;;;;;5072571;28;20112;-63
2021/07/13 12:37:18;;;;;;;26.55;23.77;;;22.60;99.90;;;;;;5062614;28;20139;-64